Flight Track Log - Related Links

Times and Time Zones

All times are in EST time to prevent confusion due to time zone crossing. See the BMBR610 flight status page for this flight to view local times or setup timezone preferences in your user account.

Time Position Orientation Groundspeed Altitude Reporting Facility
EST Latitude Longitude Course Direction KTS MPH feet Rate Location/Type
Tue 02:11:46 AM -32.1027 115.8867 334° Northwest 1,500  Level Aus ATC (Calculated)
Tue 02:12:35 AM -31.8224 115.7294 353° North 166 191 1,100 -324 Descending Aus ATC (RADAR)
Tue 02:13:00 AM -31.8034 115.7266 353° North 162 186 1,100  Level Aus ATC (RADAR)
Tue 02:13:54 AM -31.7613 115.7169 349° North 165 190 1,100 -71 Level Aus ATC (RADAR)
Tue 02:14:24 AM -31.7384 115.7100 346° North 168 193 1,000 -109 Descending Aus ATC (RADAR)
Tue 02:14:49 AM -31.7191 115.7045 346° North 171 197 1,000  Level Aus ATC (RADAR)
Tue 02:15:25 AM -31.6927 115.6940 341° North 171 197 1,000 -71 Level Aus ATC (RADAR)
Tue 02:16:14 AM -31.6558 115.6760 337° Northwest 169 194 900 -143 Descending Aus ATC (RADAR)
Tue 02:16:49 AM -31.6272 115.6733 355° North 173 199 800 -133 Descending Aus ATC (RADAR)
Tue 02:17:44 AM -31.5820 115.6730 360° North 179 206 700 -86 Descending Aus ATC (RADAR)
Tue 02:17:59 AM -31.5725 115.6640 321° Northwest 174 200 700 -120 Level Aus ATC (RADAR)
Tue 02:18:34 AM -31.5865 115.6488 223° Southwest 148 170 600 -316 Descending Aus ATC (RADAR)
Tue 02:19:34 AM -31.5870 115.6598 93° East 136 157 200 -141 Descending Aus ATC (RADAR)
Tue 02:19:59 AM -31.5704 115.6633 10° North 147 169 400 277 Climbing Aus ATC (RADAR)
Tue 02:20:39 AM -31.5687 115.6383 275° West 131 151 500 133 Climbing Aus ATC (RADAR)
Tue 02:21:29 AM -31.5943 115.6571 148° Southeast 137 158 600 71 Climbing Aus ATC (RADAR)
Tue 02:22:04 AM -31.5955 115.6869 93° East 148 170 600 225 Level Aus ATC (RADAR)
Tue 02:22:49 AM -31.6026 115.7238 103° East 142 163 900 257 Climbing Aus ATC (RADAR)
Tue 02:23:14 AM -31.6071 115.7443 104° East 146 168 900 305 Level Aus ATC (RADAR)
Tue 02:23:48 AM -31.6123 115.7727 102° East 140 161 1,200 58 Climbing Aus ATC (RADAR)
Tue 02:24:58 AM -31.6202 115.8254 100° East 136 157 1,000 -126 Descending Aus ATC (RADAR)
Tue 02:25:23 AM -31.6230 115.8439 100° East 136 157 1,000 -185 Level Aus ATC (RADAR)
Tue 02:26:03 AM -31.6266 115.8732 98° East 131 151 800 -160 Descending Aus ATC (RADAR)
Tue 02:26:38 AM -31.6309 115.8989 101° East 128 147 800  Level Aus ATC (RADAR)
Tue 02:27:08 AM -31.6334 115.9203 98° East 127 146 800  Level Aus ATC (RADAR)
Tue 02:27:58 AM -31.6382 115.9572 99° East 129 148 800  Level Aus ATC (RADAR)
Tue 02:28:28 AM -31.6407 115.9802 97° East 136 157 800 -200 Level Aus ATC (RADAR)
Tue 02:28:58 AM -31.6435 116.0032 98° East 140 161 600 -365 Descending Aus ATC (RADAR)
Tue 02:30:23 AM -31.6789 116.0155 164° South 67 77 100 -154 Descending Aus ATC (RADAR)
Tue 02:32:13 AM -31.6801 116.0200 108° East 10 12 100  Level Aus ATC (RADAR)
Tue 02:32:18 AM -31.6803 116.0198 216° Southwest 10 12 100  Level Aus ATC (RADAR)
Tue 02:43:47 AM -31.6694 116.0145 216° Southwest 87 100 100 17 Level Aus ATC (RADAR)
Tue 02:44:21 AM -31.6507 116.0054 337° Northwest 124 143 300 364 Climbing Aus ATC (RADAR)
Tue 02:45:26 AM -31.6404 115.9544 283° West 147 169 700 300 Climbing Aus ATC (RADAR)
Tue 02:45:41 AM -31.6386 115.9426 280° West 148 170 700 130 Level Aus ATC (RADAR)
Tue 02:46:12 AM -31.6345 115.9188 282° West 148 170 800 257 Climbing Aus ATC (RADAR)
Tue 02:46:51 AM -31.6296 115.8870 280° West 148 170 1,000 281 Climbing Aus ATC (RADAR)
Tue 02:47:16 AM -31.6248 115.8671 286° West 151 174 1,100 92 Climbing Aus ATC (RADAR)
Tue 02:47:56 AM -31.6159 115.8335 287° West 158 182 1,100 133 Level Aus ATC (RADAR)
Tue 02:48:46 AM -31.6011 115.7931 293° West 160 184 1,300 141 Climbing Aus ATC (RADAR)
Tue 02:49:21 AM -31.5917 115.7631 290° West 164 189 1,300 -141 Level Aus ATC (RADAR)
Tue 02:50:11 AM -31.5746 115.7189 294° West 176 203 1,100 -400 Descending Aus ATC (RADAR)
Tue 02:50:36 AM -31.5663 115.6970 294° West 170 196 800 -300 Descending Aus ATC (RADAR)
Tue 02:51:11 AM -31.5632 115.6670 277° West 154 177 800 -141 Level Aus ATC (RADAR)
Tue 02:52:01 AM -31.5900 115.6466 213° Southwest 137 158 600 -75 Descending Aus ATC (RADAR)
Tue 02:52:31 AM -31.6037 115.6776 117° Southeast 111 128 700 160 Climbing Aus ATC (RADAR)
Tue 02:53:16 AM -31.5608 115.6686 350° North 158 182 800 86 Climbing Aus ATC (RADAR)
Tue 02:53:41 AM -31.5685 115.6502 244° Southwest 147 169 800  Level Aus ATC (RADAR)
Tue 02:54:16 AM -31.5889 115.6551 169° South 131 151 800 57 Level Aus ATC (RADAR)
Tue 02:55:26 AM -31.5614 115.6643 16° North 160 184 900 -64 Climbing Aus ATC (RADAR)
Tue 02:55:50 AM -31.5698 115.6456 242° Southwest 150 173 700 -203 Descending Aus ATC (RADAR)
Tue 02:56:25 AM -31.5916 115.6557 158° South 143 165 700  Level Aus ATC (RADAR)
Tue 02:57:05 AM -31.5835 115.6887 74° East 147 169 700 -320 Level Aus ATC (RADAR)
Tue 02:57:40 AM -31.5874 115.6696 257° West 148 170 300 -171 Descending Aus ATC (RADAR)
Tue 02:58:15 AM -31.5657 115.6552 330° Northwest 146 168 500 99 Climbing Aus ATC (RADAR)
Tue 02:58:55 AM -31.5743 115.6339 245° Southwest 138 159 41 Descending Aus ATC (RADAR)
Tue 02:59:30 AM -31.5962 115.6446 157° South 143 165 340 Level Aus ATC (RADAR)
Tue 03:00:41 AM -31.6329 115.6643 155° Southeast 121 139 600 442 Climbing Aus ATC (RADAR)
Tue 03:01:05 AM -31.6455 115.6699 160° South 118 136 700 407 Climbing Aus ATC (RADAR)
Tue 03:01:40 AM -31.6642 115.6765 163° South 119 137 1,000 300 Climbing Aus ATC (RADAR)
Tue 03:02:25 AM -31.6892 115.6860 162° South 126 145 1,100 75 Climbing Aus ATC (RADAR)
Tue 03:03:00 AM -31.7098 115.6957 158° South 136 157 1,100 -71 Level Aus ATC (RADAR)
Tue 03:03:49 AM -31.7408 115.7063 164° South 141 162 1,000 -81 Descending Aus ATC (RADAR)
Tue 03:04:14 AM -31.7567 115.7101 169° South 139 160 1,000  Level Aus ATC (RADAR)
Tue 03:05:14 AM -31.7952 115.7168 172° South 140 161 1,000 60 Level Aus ATC (RADAR)
Tue 03:05:54 AM -31.8204 115.7206 173° South 138 159 1,100 100 Climbing Aus ATC (RADAR)
Tue 03:06:14 AM -31.8329 115.7228 171° South 137 158 1,100 -120 Level Aus ATC (RADAR)
Tue 03:06:44 AM -31.8522 115.7264 171° South 141 162 1,000  Descending Aus ATC (RADAR)
Tue 03:07:34 AM -31.8848 115.7280 178° South 139 160 1,100 141 Climbing Aus ATC (RADAR)
Tue 03:08:09 AM -31.9068 115.7279 180° South 136 157 1,200 150 Climbing Aus ATC (RADAR)
Tue 03:08:54 AM -31.9361 115.7255 184° South 140 161 1,300 92 Climbing Aus ATC (RADAR)
Tue 03:09:14 AM -31.9492 115.7242 185° South 142 163 1,300  Level Aus ATC (RADAR)
Tue 03:09:44 AM -31.9693 115.7218 186° South 145 167 1,300  Level Aus ATC (RADAR)
Tue 03:10:39 AM -32.0046 115.7180 185° South 141 162 1,300  Level Aus ATC (RADAR)
Tue 03:11:09 AM -32.0252 115.7169 183° South 147 169 1,300 92 Level Aus ATC (RADAR)
Tue 03:11:44 AM -32.0483 115.7175 179° South 143 165 1,400 80 Climbing Aus ATC (RADAR)
Tue 03:12:24 AM -32.0733 115.7250 166° South 140 161 1,400 -80 Level Aus ATC (RADAR)
Tue 03:12:59 AM -32.0912 115.7386 147° Southeast 132 152 1,300 75 Descending Aus ATC (RADAR)
Tue 03:13:44 AM -32.0950 115.7715 98° East 132 152 1,500 171 Climbing Aus ATC (RADAR)
Tue 03:14:09 AM -32.0955 115.7901 92° East 133 153 1,500  Level Aus ATC (RADAR)
Tue 03:14:44 AM -32.0958 115.8146 91° East 125 144 1,500 -605 Level Aus ATC (RADAR)
Tue 03:16:08 AM -32.0968 115.8651 91° East 101 116 300 -100 Descending Aus ATC (RADAR)
Tue 03:16:33 AM -32.1005 115.8747 115° Southeast 79 91 -16 Descending Aus ATC (RADAR)
Tue 03:21:56 AM -32.0952 115.8809 360° North 100 70 Climbing Aus ATC (Calculated)
Tue 03:22:18 AM -32.0952 115.8809 147° Southeast 400 69 Climbing Aus ATC (Calculated)
Tue 03:26:15 AM -32.0989 115.8838 304° West 400 -47 Level Aus ATC (Calculated)
Tue 03:28:40 AM -32.0982 115.8825 304° West 100 -124 Descending Aus ATC (Calculated)

Login

Don't have an account? Register now (free) for customized features, flight alerts, and more!